Flight Track Log - Related Links

Times and Time Zones

All times are in EDT time to prevent confusion due to time zone crossing. See the N860BA flight status page for this flight to view local times or setup timezone preferences in your user account.

Time Position Orientation Groundspeed Altitude Reporting Facility
EDT Latitude Longitude Course Direction KTS MPH feet Rate Location/Type
Sat 04:33:02 AM 31.8014 -106.3981 218° Southwest 159 183 4,500  Level Albuquerque Center
Sat 04:34:09 AM 31.7575 -106.4389 218° Southwest 209 241 6,300 1,734 Climbing Albuquerque Center
Sat 04:35:10 AM 31.7081 -106.4836 218° Southwest 254 292 8,200 1,748 Climbing Albuquerque Center
Sat 04:36:16 AM 31.7497 -106.5486 307° West 279 321 10,000 1,890 Climbing Albuquerque Center
Sat 04:37:17 AM 31.8311 -106.5939 335° Northwest 310 357 12,200 2,132 Climbing Albuquerque Center
Sat 04:38:17 AM 31.9089 -106.6472 330° Northwest 321 369 14,300 1,950 Climbing Albuquerque Center
Sat 04:39:17 AM 31.9917 -106.7017 331° Northwest 339 390 16,100 1,650 Climbing Albuquerque Center
Sat 04:40:17 AM 32.0789 -106.7600 330° Northwest 358 412 17,600 1,350 Climbing Albuquerque Center
Sat 04:41:17 AM 32.1711 -106.8222 330° Northwest 380 437 18,800 1,289 Climbing Albuquerque Center
Sat 04:42:18 AM 32.2831 -106.8975 330° Northwest 403 464 20,200 1,388 Climbing Albuquerque Center
Sat 04:43:18 AM 32.3625 -106.9994 313° West 422 486 21,600 1,350 Climbing Albuquerque Center
Sat 04:44:18 AM 32.4358 -107.0969 312° West 428 493 22,900 1,350 Climbing Albuquerque Center
Sat 04:45:18 AM 32.5150 -107.2106 310° West 434 499 24,300 1,388 Climbing Albuquerque Center
Sat 04:46:19 AM 32.5961 -107.3153 313° West 432 497 25,700 1,339 Climbing Albuquerque Center
Sat 04:47:19 AM 32.6742 -107.4208 311° West 430 495 27,000 1,200 Climbing Albuquerque Center
Sat 04:48:19 AM 32.7528 -107.5311 310° West 431 496 28,100 1,050 Climbing Albuquerque Center
Sat 04:49:19 AM 32.8319 -107.6381 311° West 432 497 29,100 950 Climbing Albuquerque Center
Sat 04:50:19 AM 32.9133 -107.7469 312° West 437 503 30,000 893 Climbing Albuquerque Center
Sat 04:51:20 AM 32.9956 -107.8592 311° West 446 513 30,900 843 Climbing Albuquerque Center
Sat 04:52:20 AM 33.0767 -107.9703 311° West 446 513 31,700 800 Climbing Albuquerque Center
Sat 04:53:20 AM 33.1611 -108.0839 312° West 454 522 32,500 750 Climbing Albuquerque Center
Sat 04:54:20 AM 33.2414 -108.1936 311° West 453 521 33,200 694 Climbing Albuquerque Center
Sat 04:55:21 AM 33.3244 -108.3075 311° West 455 524 33,900 694 Climbing Albuquerque Center
Sat 04:56:21 AM 33.4069 -108.4217 311° West 456 525 34,600 700 Climbing Albuquerque Center
Sat 04:57:21 AM 33.4892 -108.5356 311° West 456 525 35,300 600 Climbing Albuquerque Center
Sat 04:58:21 AM 33.5700 -108.6492 311° West 454 522 35,800 496 Climbing Albuquerque Center
Sat 04:59:22 AM 33.6522 -108.7633 311° West 454 522 36,300 446 Climbing Albuquerque Center
Sat 05:00:22 AM 33.7353 -108.8797 311° West 458 527 36,700 450 Climbing Albuquerque Center
Sat 05:01:22 AM 33.8178 -108.9961 310° West 460 529 37,200 450 Climbing Albuquerque Center
Sat 05:02:22 AM 33.8994 -109.1139 310° West 461 531 37,600 397 Climbing Albuquerque Center
Sat 05:03:23 AM 33.9983 -109.2542 310° West 460 529 38,000 198 Climbing Albuquerque Center
Sat 05:04:23 AM 34.0811 -109.3719 310° West 461 531 38,000  Level Albuquerque Center
Sat 05:05:23 AM 34.1611 -109.4853 310° West 464 534 38,000  Level Albuquerque Center
Sat 05:06:23 AM 34.2425 -109.6022 310° West 470 541 38,000  Level Albuquerque Center
Sat 05:07:23 AM 34.3361 -109.7367 310° West 468 539 38,000  Level Albuquerque Center
Sat 05:08:24 AM 34.4150 -109.8511 310° West 464 534 38,000  Level Albuquerque Center
Sat 05:09:24 AM 34.4947 -109.9658 310° West 463 533 38,000  Level Albuquerque Center
Sat 05:10:24 AM 34.5739 -110.0789 310° West 461 531 38,000  Level Albuquerque Center
Sat 05:11:24 AM 34.6672 -110.2150 310° West 465 535 38,000  Level Albuquerque Center
Sat 05:12:24 AM 34.7464 -110.3311 310° West 465 535 38,000  Level Albuquerque Center
Sat 05:13:24 AM 34.8250 -110.4456 310° West 462 532 38,000  Level Albuquerque Center
Sat 05:14:25 AM 34.9025 -110.5594 310° West 459 528 38,000  Level Albuquerque Center
Sat 05:15:25 AM 34.9917 -110.6917 309° West 455 524 38,000  Level Albuquerque Center
Sat 05:16:25 AM 35.0678 -110.8069 309° West 454 522 38,000  Level Albuquerque Center
Sat 05:17:25 AM 35.1297 -110.9344 301° West 462 532 38,000  Level Albuquerque Center
Sat 05:18:25 AM 35.2031 -111.0844 301° West 459 528 38,000  Level Albuquerque Center
Sat 05:19:26 AM 35.2667 -111.2150 301° West 464 534 38,000  Level Albuquerque Center
Sat 05:20:26 AM 35.3303 -111.3417 302° West 459 528 38,000  Level Albuquerque Center
Sat 05:21:26 AM 35.3883 -111.4669 300° West 455 524 38,000  Level Albuquerque Center
Sat 05:22:26 AM 35.4533 -111.6003 301° West 459 528 38,000  Level Albuquerque Center
Sat 05:23:26 AM 35.5175 -111.7314 301° West 454 522 38,000  Level Albuquerque Center
Sat 05:24:26 AM 35.5808 -111.8639 300° West 454 522 38,000  Level Albuquerque Center
Sat 05:25:26 AM 35.5986 -112.0142 278° West 457 526 38,000  Level Albuquerque Center
Sat 05:26:27 AM 35.5969 -112.1669 269° West 451 519 38,000  Level Albuquerque Center
Sat 05:27:27 AM 35.6017 -112.3203 272° West 453 521 38,000  Level Albuquerque Center
Sat 05:28:36 AM 35.6067 -112.5047 272° West 452 520 38,000  Level Los Angeles Center
Sat 05:29:36 AM 35.6103 -112.6769 272° West 449 517 38,000  Level Los Angeles Center
Sat 05:30:36 AM 35.6128 -112.8325 271° West 454 522 38,000  Level Los Angeles Center
Sat 05:31:36 AM 35.6161 -112.9772 272° West 455 524 38,000  Level Los Angeles Center
Sat 05:32:37 AM 35.6175 -113.1294 271° West 446 513 38,000  Level Los Angeles Center
Sat 05:33:37 AM 35.6203 -113.2919 271° West 449 517 38,000  Level Los Angeles Center
Sat 05:34:37 AM 35.6231 -113.4475 271° West 456 525 38,000  Level Los Angeles Center
Sat 05:35:37 AM 35.6386 -113.5981 277° West 453 521 38,000  Level Los Angeles Center
Sat 05:36:37 AM 35.6800 -113.7414 290° West 449 517 38,000  Level Los Angeles Center
Sat 05:37:37 AM 35.7231 -113.8811 291° West 450 518 38,000  Level Los Angeles Center
Sat 05:38:37 AM 35.7739 -114.0214 294° West 449 517 38,000  Level Los Angeles Center
Sat 05:39:37 AM 35.8236 -114.1631 293° West 450 518 38,000  Level Los Angeles Center
Sat 05:40:38 AM 35.8714 -114.3033 293° West 443 510 38,000  Level Los Angeles Center
Sat 05:41:38 AM 35.9208 -114.4450 293° West 447 514 38,000  Level Los Angeles Center
Sat 05:42:38 AM 35.9708 -114.5869 294° West 450 518 38,000  Level Los Angeles Center
Sat 05:43:38 AM 36.0200 -114.7292 293° West 451 519 38,000  Level Los Angeles Center
Sat 05:44:38 AM 36.0675 -114.8697 293° West 446 513 38,000  Level Los Angeles Center
Sat 05:45:38 AM 36.1153 -115.0122 293° West 448 516 38,000  Level Los Angeles Center
Sat 05:46:38 AM 36.1650 -115.1539 294° West 449 517 38,000  Level Los Angeles Center
Sat 05:47:38 AM 36.2133 -115.2953 293° West 447 514 38,000  Level Los Angeles Center
Sat 05:48:38 AM 36.2608 -115.4358 293° West 439 505 38,000  Level Los Angeles Center
Sat 05:49:38 AM 36.3125 -115.5936 292° West 453 521 38,000  Level Los Angeles Center
Sat 05:50:38 AM 36.3614 -115.7394 293° West 449 517 38,000  Level Los Angeles Center
Sat 05:51:39 AM 36.4086 -115.8811 293° West 445 512 38,000  Level Los Angeles Center
Sat 05:52:39 AM 36.4539 -116.0175 292° West 442 509 38,000  Level Los Angeles Center
Sat 05:53:39 AM 36.5006 -116.1583 292° West 441 507 38,000  Level Los Angeles Center
Sat 05:54:39 AM 36.5475 -116.3017 292° West 445 512 38,000  Level Los Angeles Center
Sat 05:55:39 AM 36.5947 -116.4442 292° West 446 513 38,000  Level Los Angeles Center
Sat 05:56:39 AM 36.6400 -116.5875 292° West 445 512 38,000  Level Los Angeles Center
Sat 05:57:39 AM 36.6858 -116.7297 292° West 444 511 38,000  Level Los Angeles Center
Sat 05:58:39 AM 36.7322 -116.8731 292° West 445 512 38,000  Level Los Angeles Center
Sat 05:59:39 AM 36.7750 -117.0058 292° West 444 511 38,000  Level Los Angeles Center
Sat 06:00:39 AM 36.8231 -117.1592 291° West 444 511 38,000  Level Los Angeles Center
Sat 06:01:40 AM 36.8678 -117.3033 291° West 444 511 38,000  Level Los Angeles Center
Sat 06:02:40 AM 36.9133 -117.4486 291° West 446 513 38,000  Level Los Angeles Center
Sat 06:03:40 AM 36.9578 -117.5917 291° West 443 510 38,000  Level Los Angeles Center
Sat 06:04:40 AM 37.0025 -117.7347 291° West 442 509 38,000  Level Los Angeles Center
Sat 06:05:40 AM 37.0478 -117.8794 291° West 443 510 38,000  Level Los Angeles Center
Sat 06:06:40 AM 37.0914 -118.0214 291° West 438 504 38,000  Level Los Angeles Center
Sat 06:07:40 AM 37.1361 -118.1678 291° West 446 513 38,000  Level Los Angeles Center
Sat 06:08:47 AM 37.1786 -118.3117 290° West 444 511 38,000  Level Oakland Center
Sat 06:09:48 AM 37.2225 -118.4567 291° West 444 511 38,000  Level Oakland Center
Sat 06:10:48 AM 37.2689 -118.6081 291° West 443 510 38,000  Level Oakland Center
Sat 06:11:48 AM 37.3114 -118.7528 290° West 443 510 38,000  Level Oakland Center
Sat 06:12:48 AM 37.3547 -118.8978 291° West 444 511 38,000  Level Oakland Center
Sat 06:13:48 AM 37.3975 -119.0406 291° West 441 507 38,000  Level Oakland Center
Sat 06:14:48 AM 37.4394 -119.1842 290° West 440 506 38,000  Level Oakland Center
Sat 06:15:49 AM 37.4822 -119.3281 291° West 441 507 38,000 -397 Level Oakland Center
Sat 06:16:49 AM 37.5236 -119.4728 290° West 441 507 37,200 -1,250 Descending Oakland Center
Sat 06:17:49 AM 37.5636 -119.6169 289° West 452 520 35,500 -1,800 Descending Oakland Center
Sat 06:18:49 AM 37.6097 -119.7672 291° West 457 526 33,600 -1,750 Descending Oakland Center
Sat 06:19:49 AM 37.6519 -119.9183 289° West 457 526 32,000 -1,550 Descending Oakland Center
Sat 06:20:49 AM 37.6950 -120.0694 290° West 457 526 30,500 -1,537 Descending Oakland Center
Sat 06:21:50 AM 37.7378 -120.2181 290° West 453 521 28,900 -1,636 Descending Oakland Center
Sat 06:22:50 AM 37.7792 -120.3675 289° West 452 520 27,200 -1,850 Descending Oakland Center
Sat 06:23:50 AM 37.8214 -120.5153 290° West 448 516 25,200 -1,900 Descending Oakland Center
Sat 06:24:50 AM 37.8628 -120.6678 289° West 453 521 23,400 -1,650 Descending Oakland Center
Sat 06:25:50 AM 37.8497 -120.8236 264° West 448 516 21,900 -1,604 Descending Oakland Center
Sat 06:26:31 AM 37.8333 -120.9333 259° West 438 504 20,700 -2,317 Descending Northern Cal TRACON
Sat 06:27:31 AM 37.8000 -121.1000 256° West 457 526 18,000 -2,650 Descending Northern Cal TRACON
Sat 06:28:31 AM 37.7833 -121.2333 261° West 455 524 15,400 -2,600 Descending Northern Cal TRACON
Sat 06:29:31 AM 37.7667 -121.3667 261° West 371 427 12,800 -2,632 Descending Northern Cal TRACON
Sat 06:30:25 AM 37.7333 -121.4833 250° West 349 402 10,400 -1,737 Descending Northern Cal TRACON
Sat 06:31:25 AM 37.7167 -121.5833 258° West 292 336 9,500 -1,350 Descending Northern Cal TRACON
Sat 06:32:25 AM 37.7167 -121.6833 270° West 272 313 7,700 -1,900 Descending Northern Cal TRACON
Sat 06:33:25 AM 37.7000 -121.7667 256° West 264 304 5,700 -1,850 Descending Northern Cal TRACON
Sat 06:34:25 AM 37.6833 -121.8667 258° West 275 316 4,000 -850 Descending Northern Cal TRACON
Sat 06:35:25 AM 37.6667 -121.9667 258° West 272 313 4,000 -800 Level Northern Cal TRACON
Sat 06:36:25 AM 37.6667 -122.0333 270° West 228 262 2,400 -1,150 Descending Northern Cal TRACON
Sat 06:37:25 AM 37.6833 -122.1000 288° West 157 181 1,700 -700 Descending Northern Cal TRACON
Sat 06:38:25 AM 37.7000 -122.1500 293° West 144 166 1,000 -700 Descending Northern Cal TRACON
Sat 06:39:25 AM 37.7167 -122.1833 302° West 134 154 300 -700 Descending Northern Cal TRACON
Sat 06:41:00 AM 37.7167 -122.2167 270° West  Level FlightAware Approximate
Sat 06:48:00 AM 37.7213 -122.2207 270° West  Level Estimated

Login

Don't have an account? Register now (free) for customized features, flight alerts, and more!